This is the latest recevied weather packets stored in our database for station/object KC4QLP. If no packets are shown the sender has not sent any weather packets the latest 10 day(s).
| Time | Temp. | Humidity | Pressure | Rain* | Wind** | Luminosity | Snow |
|---|---|---|---|---|---|---|---|
| 1777741215 | 10.56° C | 51% | 1009.4 hPa | 0 mm | - | 0 W/m² | - |
| 1777739416 | 9.44° C | 56% | 1009.5 hPa | 0 mm | - | 0 W/m² | - |
| 1777737617 | 8.89° C | 59% | 1009.6 hPa | 0 mm | - | 0 W/m² | - |
| 1777735816 | 10° C | 63% | 1009.8 hPa | 0 mm | - | 0 W/m² | - |
| 1777734016 | 7.22° C | 71% | 1009.7 hPa | 0 mm | - | 0 W/m² | - |
| 1777732216 | 6.67° C | 75% | 1010 hPa | 0 mm | - | 0 W/m² | - |
| 1777730416 | 7.78° C | 76% | 1010 hPa | 0 mm | - | 0 W/m² | - |
| 1777728616 | 7.22° C | 81% | 1009.8 hPa | 0 mm | - | 0 W/m² | - |
| 1777726816 | 6.67° C | 81% | 1009.8 hPa | 0 mm | - | 0 W/m² | - |
| 1777725016 | 5.56° C | 88% | 1009.7 hPa | 0 mm | - | 0 W/m² | - |
| 1777723216 | 6.11° C | 88% | 1009.6 hPa | 0 mm | - | 0 W/m² | - |
| 1777721416 | 5° C | 90% | 1009.7 hPa | 0 mm | - | 0 W/m² | - |
| 1777719616 | 10° C | 72% | 1009.6 hPa | 0 mm | - | 0 W/m² | - |
| 1777717816 | 10° C | 72% | 1009.3 hPa | 0 mm | - | 0 W/m² | - |
| 1777716016 | 10° C | 72% | 1008.9 hPa | 0 mm | - | 0 W/m² | - |
| 1777714216 | 10° C | 72% | 1008.8 hPa | 0 mm | - | 0 W/m² | - |
| 1777712416 | 10° C | 72% | 1008.6 hPa | 0 mm | - | 0 W/m² | - |
| 1777710617 | 10° C | 72% | 1008.5 hPa | 0 mm | - | 0 W/m² | - |
| 1777708816 | 10° C | 72% | 1008.4 hPa | 0 mm | - | 0 W/m² | - |
| 1777707016 | 10° C | 72% | 1008.5 hPa | 0 mm | - | 0 W/m² | - |
| 1777705217 | 10° C | 72% | 1008.5 hPa | 0 mm | - | 0 W/m² | - |
| 1777703416 | 10° C | 72% | 1008.6 hPa | 0 mm | - | 0 W/m² | - |
| 1777701617 | 10° C | 72% | 1008.7 hPa | 0 mm | - | 0 W/m² | - |
| 1777699817 | 10° C | 72% | 1008.6 hPa | 0 mm | - | 0 W/m² | - |
| 1777698018 | 10° C | 72% | 1008.5 hPa | 0 mm | - | 0 W/m² | - |
* Rain latest hour (hover to see other rain measurements)
** Current wind speed in m/s (hover to see current wind gust speed)